Blairstown Advisory Only (1N7)
Blairstown, NJ
Field Elevation: 371
Lat: 40°58.27N  Long: 74°59.85W
CTAF/Unicom Freq: 123.0000
   
     For Weather-by-Phone, call 908-362-1700
Weather Advisories
2021-03-04   15:29 Z
Altimeter 29.85" Hg
Wind 340° @ 8 KT
Gusts 19 KT
Visibility 10 SM
Ceiling OVC049
Temperature 3° C (37° F)
Dewpoint -8° C (18° F)
Relative Humidity 44%
Density Altitude --
Condensation Altitude 5,900 feet
Wind Chill: -1° C (30° F)
Wind and Runways
Indicated Runway = 07
Headwind = 0 kt
Crosswind = 8 kt
History
 
 
 
More Info
NOAA Forecast
 
 
About Us
Belfort Instrument
 
 
FAA Disclaimer: The data displayed is for advisory purposes only and is not to be used for flight planning or operations. For official data, please call 908-362-1700 to hear the current automated AWOS voice message.
  METAR 1N7 041529Z AUTO 34008G19KT 10 SM OVC049 03/M08 A2985